Methven, United Kingdom
Current Conditions -  °F | °C
As of 5:20 PM on Sunday 21 Dec 2014 (Local Time) from EGPN Reporting Station
Light Rain Light Rain  
Wind Chill: 41°   Ceiling: 1400
Heat Index: 48°   Visibility: 6mi
Dew Point: 46°   Wind: 20mph
Humidity: 93%   Direction: 240°WSW
Pressure: 29.59"   Gusts: NA
Location:  56.42°N, 3.58°W
Report Text: EGPN 211720Z 24017KT 9999 -RA SCT010 BKN014 09/08 Q1002
Loading
Personal Weather Stations






























Interactive Weather Map New forecast layout! Learn more

10-Day Weather Forecast

Advertisements
Track Severe Weather on mobile